Time;durP1;ratioP1;P1;durP2;ratioP2;P2;SDS_P1;SDS_P2;PMS_P1;PMS_P2;Temp;Humidity;BMP_temperature;BMP_pressure;BME280_temperature;BME280_humidity;BME280_pressure;Samples;Min_cycle;Max_cycle;Signal;HPM_P1;HPM_P2
2023/10/14 00:02:26;;;;;;;3.10;0.93;;;;;;;17.45;100.00;100078.16;5242552;28;20578;-77
2023/10/14 00:04:58;;;;;;;8.30;1.30;;;;;;;17.05;100.00;100078.53;5256167;28;20029;-78
2023/10/14 00:07:30;;;;;;;6.53;0.90;;;;;;;17.05;100.00;100089.13;5250879;28;20116;-76
2023/10/14 00:10:03;;;;;;;3.00;0.87;;;;;;;17.35;100.00;100125.91;5273303;28;20093;-78
2023/10/14 00:12:37;;;;;;;1.75;0.60;;;;;;;17.13;100.00;100093.66;5257027;28;20040;-80
2023/10/14 00:15:08;;;;;;;1.87;0.90;;;;;;;17.29;100.00;100095.59;5251882;28;20028;-80
2023/10/14 00:17:42;;;;;;;0.90;0.47;;;;;;;16.97;100.00;100089.03;5251582;28;20095;-77
2023/10/14 00:20:14;;;;;;;1.77;0.85;;;;;;;17.28;100.00;100088.63;5264322;28;20032;-75
2023/10/14 00:22:45;;;;;;;2.50;0.40;;;;;;;17.22;100.00;100099.84;5252214;28;20020;-80
2023/10/14 00:25:21;;;;;;;2.90;0.80;;;;;;;17.14;100.00;100108.56;5252522;28;20100;-76
2023/10/14 00:27:54;;;;;;;4.83;1.30;;;;;;;16.95;100.00;100104.25;5252438;28;20070;-80
2023/10/14 00:30:31;;;;;;;3.17;0.77;;;;;;;16.98;100.00;100098.66;5252079;28;20037;-72
2023/10/14 00:33:03;;;;;;;3.00;0.60;;;;;;;17.08;100.00;100120.56;5251590;28;20028;-78
2023/10/14 00:35:39;;;;;;;2.90;0.80;;;;;;;17.07;100.00;100142.69;5251561;28;20017;-77
2023/10/14 00:38:14;;;;;;;1.80;0.50;;;;;;;16.90;100.00;100152.28;5265317;28;20032;-78
2023/10/14 00:40:47;;;;;;;1.17;0.43;;;;;;;16.98;100.00;100157.69;5238255;28;20021;-79
2023/10/14 00:43:20;;;;;;;2.17;0.50;;;;;;;16.95;100.00;100157.16;5252219;28;20033;-78
2023/10/14 00:45:52;;;;;;;2.57;0.80;;;;;;;16.88;100.00;100159.53;5246452;28;20014;-80
2023/10/14 00:48:27;;;;;;;2.00;0.57;;;;;;;16.78;100.00;100162.25;5241185;28;20051;-78
2023/10/14 00:51:01;;;;;;;2.83;0.57;;;;;;;16.74;100.00;100161.72;5236310;28;20031;-74
2023/10/14 00:53:36;;;;;;;3.38;0.75;;;;;;;16.96;100.00;100159.63;5252212;28;20025;-77
2023/10/14 00:56:11;;;;;;;1.33;0.53;;;;;;;16.78;100.00;100156.97;5252296;28;20527;-75
2023/10/14 00:58:48;;;;;;;1.90;0.80;;;;;;;16.86;100.00;100148.31;5265929;28;20033;-77
2023/10/14 01:01:20;;;;;;;2.20;0.90;;;;;;;16.88;100.00;100168.31;5230201;28;20036;-79
2023/10/14 01:03:53;;;;;;;1.80;0.80;;;;;;;16.75;100.00;100173.13;5245487;28;20032;-76
2023/10/14 01:06:53;;;;;;;2.43;0.90;;;;;;;16.84;100.00;100182.84;5259302;28;20043;-74
2023/10/14 01:09:19;;;;;;;4.70;1.30;;;;;;;16.61;100.00;100183.25;5255335;28;20036;-78
2023/10/14 01:11:50;;;;;;;3.87;1.00;;;;;;;16.84;100.00;100184.63;5245000;28;20476;-75
2023/10/14 01:14:23;;;;;;;3.03;1.80;;;;;;;16.73;100.00;100190.97;5251492;28;20151;-78
2023/10/14 01:16:55;;;;;;;2.43;1.40;;;;;;;16.70;100.00;100197.38;5255247;28;20028;-79
2023/10/14 01:19:28;;;;;;;2.93;1.60;;;;;;;16.57;100.00;100229.44;5253393;28;20098;-75
2023/10/14 01:21:59;;;;;;;5.23;1.20;;;;;;;16.39;100.00;100217.00;5254917;28;20020;-78
2023/10/14 01:24:31;;;;;;;8.00;1.73;;;;;;;16.21;100.00;100238.91;5250854;28;20037;-75
2023/10/14 01:27:06;;;;;;;4.83;1.13;;;;;;;16.30;100.00;100236.38;5267165;28;20025;-78
2023/10/14 01:29:41;;;;;;;4.83;0.97;;;;;;;16.11;100.00;100245.22;5255896;28;20053;-75
2023/10/14 01:33:12;;;;;;;4.37;1.33;;;;;;;16.48;100.00;100260.22;5253657;28;20029;-73
2023/10/14 01:35:32;;;;;;;6.32;1.48;;;;;;;16.37;100.00;100271.81;5240185;28;20033;-77
2023/10/14 01:38:03;;;;;;;6.13;1.00;;;;;;;16.16;100.00;100275.47;5254867;28;20029;-78
2023/10/14 01:43:06;;;;;;;4.93;1.30;;;;;;;16.29;100.00;100290.19;5254764;28;20033;-74
2023/10/14 01:45:48;;;;;;;7.47;1.17;;;;;;;15.92;100.00;100282.03;5251586;28;20083;-79
2023/10/14 01:48:25;;;;;;;6.60;1.40;;;;;;;16.19;100.00;100306.06;5234992;28;20120;-76
2023/10/14 01:50:57;;;;;;;7.23;1.43;;;;;;;15.96;100.00;100315.13;5260744;28;20632;-76
2023/10/14 01:53:34;;;;;;;5.60;1.33;;;;;;;16.04;100.00;100313.63;5260896;28;20494;-77
2023/10/14 01:56:06;;;;;;;5.73;1.47;;;;;;;16.01;100.00;100313.88;5254111;28;20108;-77
2023/10/14 01:58:37;;;;;;;8.30;1.90;;;;;;;15.97;100.00;100335.25;5254651;28;20108;-78
2023/10/14 02:03:46;;;;;;;;;;;;;;;16.50;100.00;100349.94;5255212;28;20029;-77
2023/10/14 02:06:26;;;;;;;10.77;2.65;;;;;;;15.81;100.00;100356.13;5273702;28;19912;-76
2023/10/14 02:08:58;;;;;;;9.03;2.50;;;;;;;15.75;100.00;100356.66;5275375;28;20021;-75
2023/10/14 02:11:35;;;;;;;6.37;1.70;;;;;;;15.84;100.00;100367.25;5274757;28;20039;-79
2023/10/14 02:14:08;;;;;;;9.97;2.03;;;;;;;15.93;100.00;100384.06;5260464;28;20757;-77
2023/10/14 02:16:44;;;;;;;7.03;1.57;;;;;;;15.92;100.00;100384.19;5269180;28;20036;-79
2023/10/14 02:19:21;;;;;;;10.40;2.20;;;;;;;15.67;100.00;100396.97;5267131;28;20876;-78
2023/10/14 02:22:01;;;;;;;7.97;2.10;;;;;;;15.86;100.00;100401.44;5265818;28;20025;-76
2023/10/14 02:24:33;;;;;;;9.33;2.53;;;;;;;15.82;100.00;100407.94;5255888;28;20111;-73
2023/10/14 02:27:13;;;;;;;9.50;1.83;;;;;;;15.56;100.00;100408.47;5263919;28;20523;-79
2023/10/14 02:29:47;;;;;;;6.50;1.70;;;;;;;15.79;100.00;100413.50;5260099;28;20028;-79
2023/10/14 02:32:20;;;;;;;6.57;1.58;;;;;;;15.64;100.00;100424.44;5255600;28;20058;-78
2023/10/14 02:34:52;;;;;;;9.10;1.60;;;;;;;15.71;100.00;100433.50;5253387;28;20092;-76
2023/10/14 02:37:24;;;;;;;8.83;1.87;;;;;;;15.70;100.00;100438.91;5254606;28;20035;-78
2023/10/14 02:39:55;;;;;;;10.97;2.10;;;;;;;15.71;100.00;100443.22;5260767;28;20056;-74
2023/10/14 02:42:27;;;;;;;7.10;2.07;;;;;;;15.61;100.00;100445.84;5245117;28;20057;-76
2023/10/14 02:44:59;;;;;;;10.17;1.93;;;;;;;15.58;100.00;100464.59;5256680;28;20055;-75
2023/10/14 02:47:37;;;;;;;10.33;1.80;;;;;;;15.47;100.00;100466.38;5252531;28;20068;-79
2023/10/14 02:50:11;;;;;;;7.57;2.23;;;;;;;15.30;100.00;100470.47;5251809;28;20730;-75
2023/10/14 02:52:49;;;;;;;11.88;2.42;;;;;;;15.07;100.00;100483.81;5239528;28;20815;-78
2023/10/14 02:55:25;;;;;;;11.80;2.30;;;;;;;15.08;100.00;100492.59;5251257;28;20013;-76
2023/10/14 02:58:02;;;;;;;11.07;3.50;;;;;;;14.93;100.00;100494.69;5253220;28;20064;-75
2023/10/14 03:00:34;;;;;;;10.13;2.87;;;;;;;14.93;100.00;100511.34;5251544;28;20407;-79
2023/10/14 03:03:10;;;;;;;13.23;3.13;;;;;;;14.89;100.00;100525.75;5251424;28;20031;-76
2023/10/14 03:05:51;;;;;;;13.37;3.70;;;;;;;15.02;100.00;100536.13;5253190;28;20029;-75
2023/10/14 03:08:22;;;;;;;13.87;2.90;;;;;;;14.97;100.00;100544.44;5242956;28;20025;-76
2023/10/14 03:10:59;;;;;;;13.30;3.00;;;;;;;14.92;100.00;100541.34;5247580;28;20021;-71
2023/10/14 03:13:32;;;;;;;13.43;3.10;;;;;;;14.72;100.00;100559.59;5251864;28;20113;-75
2023/10/14 03:16:04;;;;;;;11.65;2.75;;;;;;;14.63;100.00;100563.84;5265658;28;20021;-75
2023/10/14 03:18:38;;;;;;;11.10;2.77;;;;;;;14.70;100.00;100571.22;5253042;28;20419;-79
2023/10/14 03:21:21;;;;;;;7.95;2.63;;;;;;;14.65;100.00;100571.59;5252049;28;20029;-79
2023/10/14 03:23:56;;;;;;;14.23;2.60;;;;;;;14.35;100.00;100575.75;5231051;28;20054;-78
2023/10/14 03:26:32;;;;;;;14.03;2.60;;;;;;;14.66;100.00;100585.63;5250628;28;20483;-75
2023/10/14 03:29:05;;;;;;;10.40;2.43;;;;;;;14.26;100.00;100583.44;5252769;28;20049;-77
2023/10/14 03:31:36;;;;;;;14.13;3.43;;;;;;;14.33;100.00;100599.59;5248591;28;20040;-74
2023/10/14 03:34:09;;;;;;;10.27;3.00;;;;;;;14.35;100.00;100602.94;5250861;28;20033;-79
2023/10/14 03:36:42;;;;;;;13.17;2.80;;;;;;;14.42;100.00;100607.75;5254776;28;20431;-75
2023/10/14 03:39:18;;;;;;;8.97;2.83;;;;;;;14.19;100.00;100613.03;5252157;28;20585;-77
2023/10/14 03:41:52;;;;;;;15.60;3.93;;;;;;;14.18;100.00;100622.72;5252698;28;20025;-74
2023/10/14 03:44:24;;;;;;;12.23;2.78;;;;;;;14.37;100.00;100637.06;5240461;28;20021;-79
2023/10/14 03:47:00;;;;;;;11.87;3.00;;;;;;;14.30;100.00;100631.47;5249633;28;20021;-75
2023/10/14 03:49:33;;;;;;;14.53;3.80;;;;;;;14.23;100.00;100641.66;5252505;28;20471;-77
2023/10/14 03:52:10;;;;;;;11.20;2.50;;;;;;;13.95;100.00;100641.16;5252124;28;20021;-76
2023/10/14 03:54:41;;;;;;;11.03;2.50;;;;;;;14.10;100.00;100643.56;5252841;28;20456;-78
2023/10/14 03:57:17;;;;;;;12.40;3.07;;;;;;;14.07;100.00;100644.63;5237990;28;20083;-72
2023/10/14 03:59:48;;;;;;;11.80;2.27;;;;;;;14.08;100.00;100645.47;5239978;28;20033;-78
2023/10/14 04:02:25;;;;;;;13.83;3.80;;;;;;;13.83;100.00;100661.38;5250704;28;20036;-76
2023/10/14 04:05:07;;;;;;;13.50;3.57;;;;;;;13.98;100.00;100669.06;5251818;28;20717;-76
2023/10/14 04:07:40;;;;;;;8.40;2.30;;;;;;;13.96;100.00;100682.34;5244081;28;20111;-75
2023/10/14 04:10:12;;;;;;;13.97;2.97;;;;;;;13.97;100.00;100686.66;5249550;28;20029;-78
2023/10/14 04:12:53;;;;;;;12.73;2.93;;;;;;;13.90;100.00;100694.19;5245505;28;20387;-79
2023/10/14 04:15:34;;;;;;;9.90;3.00;;;;;;;13.93;100.00;100687.84;5251427;28;20387;-79
2023/10/14 04:18:12;;;;;;;11.20;2.40;;;;;;;13.84;100.00;100704.34;5251247;28;20437;-79
2023/10/14 04:20:46;;;;;;;7.80;2.83;;;;;;;13.83;100.00;100710.56;5250192;28;20021;-78
2023/10/14 04:23:27;;;;;;;13.18;3.25;;;;;;;13.70;100.00;100719.38;5262520;28;20623;-75
2023/10/14 04:26:11;;;;;;;14.33;3.27;;;;;;;13.74;100.00;100722.63;5253639;28;20477;-74
2023/10/14 04:28:54;;;;;;;13.27;2.78;;;;;;;13.69;100.00;100727.38;5241534;28;20041;-73
2023/10/14 04:34:26;;;;;;;14.83;3.60;;;;;;;13.70;100.00;100737.78;5225207;28;20404;-73
2023/10/14 04:36:58;;;;;;;15.13;3.10;;;;;;;13.56;100.00;100744.13;5252913;28;20021;-78
2023/10/14 04:39:33;;;;;;;16.63;3.23;;;;;;;13.45;100.00;100747.50;5235953;28;20029;-75
2023/10/14 04:44:55;;;;;;;14.37;3.93;;;;;;;13.37;100.00;100755.13;5252192;28;20029;-77
2023/10/14 04:47:38;;;;;;;13.70;3.60;;;;;;;13.28;100.00;100769.78;5253979;28;20496;-77
2023/10/14 04:50:13;;;;;;;14.00;3.83;;;;;;;13.31;100.00;100773.03;5255409;28;20547;-75
2023/10/14 04:52:48;;;;;;;9.70;2.40;;;;;;;13.22;100.00;100773.69;5255547;28;20446;-79
2023/10/14 05:00:43;;;;;;;14.60;3.10;;;;;;;13.19;100.00;100784.44;5254286;28;20608;-75
2023/10/14 05:03:21;;;;;;;16.03;4.70;;;;;;;12.92;100.00;100798.59;5259138;28;20099;-77
2023/10/14 05:05:55;;;;;;;11.77;2.57;;;;;;;13.01;100.00;100803.22;5241463;28;20118;-76
2023/10/14 05:08:44;;;;;;;10.45;2.53;;;;;;;13.04;100.00;100800.34;5248762;28;20041;-76
2023/10/14 05:11:21;;;;;;;14.23;3.17;;;;;;;12.99;100.00;100794.59;5243728;28;20124;-74
2023/10/14 05:14:07;;;;;;;13.23;2.77;;;;;;;13.02;100.00;100820.66;5255266;28;20040;-75
2023/10/14 05:19:25;;;;;;;17.00;3.60;;;;;;;12.95;100.00;100825.50;5254150;28;20115;-77
2023/10/14 05:22:04;;;;;;;13.83;4.10;;;;;;;12.91;100.00;100833.72;5255467;28;20371;-75
2023/10/14 05:24:36;;;;;;;13.53;2.50;;;;;;;12.93;100.00;100837.91;5248336;28;20032;-76
2023/10/14 05:27:08;;;;;;;13.67;3.47;;;;;;;12.91;100.00;100850.34;5234559;28;20396;-73
2023/10/14 05:29:40;;;;;;;15.77;2.77;;;;;;;12.72;100.00;100842.91;5252935;28;20504;-77
2023/10/14 05:32:13;;;;;;;15.13;3.37;;;;;;;12.85;100.00;100844.66;5253960;28;20108;-75
2023/10/14 05:34:45;;;;;;;15.80;3.20;;;;;;;12.83;100.00;100848.22;5248412;28;20090;-76
2023/10/14 05:37:16;;;;;;;14.77;2.73;;;;;;;12.80;100.00;100851.09;5247531;28;20029;-77
2023/10/14 05:39:50;;;;;;;14.73;3.47;;;;;;;12.78;100.00;100855.59;5250335;28;20025;-72
2023/10/14 05:42:21;;;;;;;11.07;2.53;;;;;;;12.44;100.00;100865.78;5254460;28;20017;-76
2023/10/14 05:44:57;;;;;;;10.40;3.20;;;;;;;12.65;100.00;100862.66;5260489;28;20036;-74
2023/10/14 05:47:29;;;;;;;13.60;3.60;;;;;;;12.68;100.00;100862.44;5253354;28;20043;-76
2023/10/14 05:50:00;;;;;;;12.63;2.70;;;;;;;12.64;100.00;100874.09;5254069;28;20049;-76
2023/10/14 05:52:31;;;;;;;18.30;3.87;;;;;;;12.66;100.00;100887.97;5254426;28;21040;-76
2023/10/14 05:55:05;;;;;;;12.80;2.73;;;;;;;12.59;100.00;100890.19;5240566;28;20034;-77
2023/10/14 05:57:39;;;;;;;21.77;4.97;;;;;;;12.67;100.00;100894.94;5251961;28;20029;-74
2023/10/14 06:00:29;;;;;;;;;;;;;;;13.11;100.00;100891.97;5240653;28;20616;-74
2023/10/14 06:03:00;;;;;;;10.67;3.57;;;;;;;12.65;100.00;100905.53;5253793;28;19920;-76
2023/10/14 06:05:32;;;;;;;11.40;3.03;;;;;;;12.62;100.00;100918.03;5254408;28;20048;-77
2023/10/14 06:08:07;;;;;;;18.37;4.40;;;;;;;12.60;100.00;100919.94;5253807;28;20028;-73
2023/10/14 06:10:41;;;;;;;;;;;;;;;13.01;100.00;100923.28;5248608;28;20040;-76
2023/10/14 06:13:14;;;;;;;11.98;3.13;;;;;;;12.54;100.00;100918.53;5253844;28;19913;-75
2023/10/14 06:15:46;;;;;;;15.33;4.57;;;;;;;12.49;100.00;100932.00;5252528;28;20021;-78
2023/10/14 06:18:17;;;;;;;13.80;3.40;;;;;;;12.53;100.00;100937.88;5253667;28;20098;-75
2023/10/14 06:20:49;;;;;;;11.47;3.03;;;;;;;12.60;100.00;100941.78;5255483;28;20086;-77
2023/10/14 06:23:20;;;;;;;14.30;3.23;;;;;;;12.49;100.00;100942.50;5261588;28;20032;-75
2023/10/14 06:25:52;;;;;;;15.30;3.30;;;;;;;12.51;100.00;100943.25;5253328;28;20028;-76
2023/10/14 06:28:24;;;;;;;11.33;3.00;;;;;;;12.57;100.00;100948.09;5253893;28;20396;-73
2023/10/14 06:30:55;;;;;;;11.83;2.80;;;;;;;12.58;100.00;100959.44;5248411;28;20021;-73
2023/10/14 06:33:27;;;;;;;13.40;2.37;;;;;;;12.63;100.00;100964.38;5263521;28;20127;-77
2023/10/14 06:36:03;;;;;;;13.47;3.00;;;;;;;12.62;100.00;100970.59;5251632;28;20066;-75
2023/10/14 06:38:36;;;;;;;12.67;2.43;;;;;;;12.57;100.00;100963.00;5255278;28;20119;-77
2023/10/14 06:41:11;;;;;;;20.33;2.97;;;;;;;12.58;100.00;100986.53;5244800;28;20401;-75
2023/10/14 06:43:47;;;;;;;9.90;2.30;;;;;;;12.60;100.00;100988.22;5250912;28;20047;-75
2023/10/14 06:46:19;;;;;;;13.77;3.20;;;;;;;12.65;100.00;100996.66;5250472;28;20041;-76
2023/10/14 06:48:55;;;;;;;9.67;2.87;;;;;;;12.69;100.00;100996.34;5253001;28;20053;-72
2023/10/14 06:51:26;;;;;;;15.73;4.27;;;;;;;12.65;100.00;101007.16;5253101;28;20068;-77
2023/10/14 06:53:58;;;;;;;19.77;3.73;;;;;;;12.62;100.00;101010.00;5247006;28;20056;-76
2023/10/14 06:56:29;;;;;;;12.27;2.97;;;;;;;12.58;100.00;101014.63;5245107;28;20120;-74
2023/10/14 06:59:01;;;;;;;11.13;2.70;;;;;;;12.57;100.00;101020.78;5247754;28;20029;-77
2023/10/14 07:01:33;;;;;;;13.67;3.67;;;;;;;12.58;100.00;101027.75;5249743;28;20052;-72
2023/10/14 07:04:04;;;;;;;11.80;2.30;;;;;;;12.58;100.00;101038.25;5250152;28;20025;-76
2023/10/14 07:06:37;;;;;;;17.63;3.17;;;;;;;12.64;100.00;101044.88;5249208;28;20047;-74
2023/10/14 07:09:17;;;;;;;15.18;2.50;;;;;;;12.56;100.00;101040.13;5249828;28;20132;-74
2023/10/14 07:11:48;;;;;;;16.73;2.93;;;;;;;12.58;100.00;101039.06;5265213;28;20032;-75
2023/10/14 07:14:19;;;;;;;11.07;2.73;;;;;;;12.48;100.00;101048.50;5252867;28;20553;-76
2023/10/14 07:16:50;;;;;;;13.60;3.40;;;;;;;12.53;100.00;101049.03;5252153;28;20056;-75
2023/10/14 07:19:23;;;;;;;11.50;2.70;;;;;;;12.65;100.00;101050.06;5265065;28;20049;-72
2023/10/14 07:21:55;;;;;;;10.17;2.20;;;;;;;12.48;100.00;101059.00;5252981;28;20123;-76
2023/10/14 07:24:27;;;;;;;10.97;2.63;;;;;;;12.61;100.00;101069.59;5251850;28;20020;-74
2023/10/14 07:26:58;;;;;;;13.03;2.90;;;;;;;12.67;100.00;101065.72;5242572;28;20036;-73
2023/10/14 07:29:30;;;;;;;13.83;3.50;;;;;;;12.62;100.00;101065.19;5247140;28;20033;-74
2023/10/14 07:32:01;;;;;;;14.10;2.97;;;;;;;12.69;100.00;101071.69;5243122;28;20423;-71
2023/10/14 07:34:32;;;;;;;10.80;3.00;;;;;;;12.69;100.00;101082.19;5252135;28;20078;-71
2023/10/14 07:37:04;;;;;;;12.83;3.17;;;;;;;12.79;100.00;101074.59;5252324;28;20056;-71
2023/10/14 07:39:36;;;;;;;17.53;4.57;;;;;;;12.79;100.00;101077.22;5249869;28;20025;-71
2023/10/14 07:42:13;;;;;;;13.77;4.40;;;;;;;12.83;100.00;101089.19;5245297;28;20025;-72
2023/10/14 07:44:44;;;;;;;9.27;3.23;;;;;;;12.88;100.00;101094.97;5246670;28;20037;-69
2023/10/14 07:47:15;;;;;;;17.00;3.60;;;;;;;12.93;100.00;101095.53;5254778;28;20113;-69
2023/10/14 07:49:47;;;;;;;21.43;4.90;;;;;;;12.93;100.00;101094.69;5252195;28;20442;-71
2023/10/14 07:52:20;;;;;;;14.30;3.70;;;;;;;13.00;100.00;101106.50;5246131;28;20029;-69
2023/10/14 07:54:52;;;;;;;16.03;3.30;;;;;;;13.02;100.00;101103.78;5244476;28;20403;-72
2023/10/14 07:57:23;;;;;;;17.30;3.17;;;;;;;13.22;100.00;101112.09;5250065;28;20036;-73
2023/10/14 07:59:59;;;;;;;22.40;4.37;;;;;;;13.24;100.00;101112.84;5252141;28;20456;-73
2023/10/14 08:02:31;;;;;;;13.97;3.33;;;;;;;13.29;100.00;101111.59;5251777;28;20037;-73
2023/10/14 08:05:05;;;;;;;11.97;3.57;;;;;;;13.48;100.00;101114.75;5250172;28;20079;-72
2023/10/14 08:07:40;;;;;;;19.13;3.75;;;;;;;13.55;100.00;101105.53;5251560;28;20029;-72
2023/10/14 08:10:18;;;;;;;14.70;3.77;;;;;;;13.79;100.00;101129.31;5264271;28;20162;-73
2023/10/14 08:12:52;;;;;;;15.40;3.40;;;;;;;14.13;100.00;101135.81;5239456;28;20431;-73
2023/10/14 08:15:23;;;;;;;12.82;3.58;;;;;;;14.69;100.00;101131.00;5249711;28;20068;-72
2023/10/14 08:17:58;;;;;;;12.40;3.13;;;;;;;15.67;100.00;101137.00;5250730;28;20562;-72
2023/10/14 08:20:31;;;;;;;18.23;3.83;;;;;;;16.67;100.00;101139.78;5264617;28;20632;-70
2023/10/14 08:23:09;;;;;;;12.67;3.03;;;;;;;17.46;100.00;101134.28;5262164;28;20029;-71
2023/10/14 08:25:43;;;;;;;12.27;3.60;;;;;;;17.52;100.00;101148.81;5245922;28;20730;-71
2023/10/14 08:28:15;;;;;;;15.80;3.00;;;;;;;16.90;100.00;101160.88;5252910;28;20032;-72
2023/10/14 08:30:46;;;;;;;11.83;3.23;;;;;;;16.37;100.00;101154.50;5242257;28;20038;-71
2023/10/14 08:33:20;;;;;;;13.10;3.97;;;;;;;16.00;100.00;101160.06;5253243;28;20033;-70
2023/10/14 08:35:52;;;;;;;12.52;3.30;;;;;;;15.81;100.00;101159.66;5248732;28;20029;-71
2023/10/14 08:38:27;;;;;;;12.23;2.97;;;;;;;15.55;100.00;101157.22;5241139;28;20031;-71
2023/10/14 08:41:00;;;;;;;15.93;3.87;;;;;;;15.44;100.00;101163.34;5249749;28;20895;-71
2023/10/14 08:43:35;;;;;;;10.77;2.60;;;;;;;15.55;100.00;101170.44;5253950;28;20029;-73
2023/10/14 08:46:08;;;;;;;12.83;4.53;;;;;;;16.65;100.00;101178.72;5253947;28;20025;-70
2023/10/14 08:48:42;;;;;;;9.23;2.23;;;;;;;18.29;100.00;101187.41;5253676;28;20067;-71
2023/10/14 08:51:14;;;;;;;9.75;3.00;;;;;;;19.45;100.00;101185.97;5257895;28;20037;-72
2023/10/14 08:53:51;;;;;;;8.87;3.60;;;;;;;20.49;100.00;101191.31;5265261;28;20471;-71
2023/10/14 08:56:22;;;;;;;13.13;3.47;;;;;;;20.71;100.00;101186.59;5255507;28;20028;-73
2023/10/14 08:58:54;;;;;;;9.13;3.00;;;;;;;21.79;100.00;101185.75;5254964;28;20028;-70
2023/10/14 09:01:25;;;;;;;11.02;2.80;;;;;;;21.97;80.42;101189.22;5253547;28;20682;-70
2023/10/14 09:03:59;;;;;;;13.63;3.15;;;;;;;22.66;71.05;101205.31;5251282;28;20491;-74
2023/10/14 09:06:32;;;;;;;12.60;3.20;;;;;;;23.63;55.45;101209.22;5252120;28;20031;-72
2023/10/14 09:09:13;;;;;;;11.93;2.85;;;;;;;24.51;49.45;101218.25;5253869;28;20040;-73
2023/10/14 09:11:44;;;;;;;10.52;3.22;;;;;;;24.62;42.33;101223.22;5255122;28;20495;-74
2023/10/14 09:14:17;;;;;;;11.93;3.75;;;;;;;25.64;41.31;101224.09;5254473;28;20052;-73
2023/10/14 09:16:53;;;;;;;12.57;3.38;;;;;;;25.43;38.96;101217.59;5253814;28;20036;-73
2023/10/14 09:19:26;;;;;;;10.43;2.50;;;;;;;26.15;39.59;101225.22;5253731;28;20057;-73
2023/10/14 09:21:58;;;;;;;10.93;2.70;;;;;;;26.29;37.24;101224.38;5237504;28;20048;-72
2023/10/14 09:24:34;;;;;;;8.20;2.38;;;;;;;26.31;37.95;101226.88;5233766;28;20459;-73
2023/10/14 09:27:06;;;;;;;12.95;3.30;;;;;;;26.63;36.22;101232.84;5236353;28;20037;-71
2023/10/14 09:29:37;;;;;;;8.70;2.63;;;;;;;27.33;34.79;101238.69;5237926;28;20041;-70
2023/10/14 09:32:09;;;;;;;7.90;2.75;;;;;;;26.78;35.71;101230.09;5236891;28;20471;-70
2023/10/14 09:34:43;;;;;;;9.27;2.67;;;;;;;27.41;34.76;101235.84;5235027;28;20037;-70
2023/10/14 09:37:17;;;;;;;13.88;3.25;;;;;;;27.16;34.68;101230.91;5237837;28;20063;-71
2023/10/14 09:39:51;;;;;;;7.28;2.67;;;;;;;27.90;33.36;101235.97;5260382;28;20037;-71
2023/10/14 09:42:24;;;;;;;11.23;3.38;;;;;;;28.27;33.10;101241.09;5238615;28;20048;-71
2023/10/14 09:44:56;;;;;;;7.80;2.30;;;;;;;29.05;33.25;101238.22;5233816;28;20041;-70
2023/10/14 09:47:29;;;;;;;9.45;3.60;;;;;;;28.62;33.55;101237.53;5235698;28;20041;-70
2023/10/14 09:50:01;;;;;;;15.48;4.13;;;;;;;28.69;33.09;101232.13;5236071;28;20088;-70
2023/10/14 09:52:33;;;;;;;10.80;2.42;;;;;;;27.24;32.72;101254.94;5235234;28;20036;-70
2023/10/14 09:55:09;;;;;;;13.32;3.22;;;;;;;26.44;34.51;101235.09;5233873;28;20033;-74
2023/10/14 09:57:47;;;;;;;8.52;2.85;;;;;;;25.80;35.23;101250.78;5244498;28;20143;-74
2023/10/14 10:00:19;;;;;;;7.53;2.47;;;;;;;24.85;35.62;101243.84;5233671;28;20041;-72
2023/10/14 10:02:53;;;;;;;11.50;2.97;;;;;;;24.82;35.07;101256.75;5234388;28;20128;-72
2023/10/14 10:05:36;;;;;;;11.50;2.97;;;;;;;24.28;36.26;101249.31;5238176;28;20053;-73
2023/10/14 10:08:33;;;;;;;10.35;3.70;;;;;;;24.08;36.50;101251.53;5243229;28;20514;-74
2023/10/14 10:11:04;;;;;;;8.82;2.33;;;;;;;23.09;38.32;101256.78;5266807;28;20021;-74
2023/10/14 10:13:38;;;;;;;9.57;2.33;;;;;;;22.93;39.76;101256.75;5253445;28;20044;-71
2023/10/14 10:16:11;;;;;;;8.32;2.35;;;;;;;22.46;38.46;101250.94;5250545;28;20025;-72
2023/10/14 10:18:58;;;;;;;9.98;2.60;;;;;;;22.76;40.57;101261.25;5253703;28;20064;-73
2023/10/14 10:21:40;;;;;;;8.55;2.50;;;;;;;22.10;38.21;101243.94;5244817;28;20048;-71
2023/10/14 10:24:18;;;;;;;7.28;2.67;;;;;;;21.84;38.79;101264.31;5241333;28;20155;-74
2023/10/14 10:27:06;;;;;;;7.65;2.08;;;;;;;21.62;39.80;101270.94;5235327;28;20029;-72
2023/10/14 10:29:44;;;;;;;7.18;2.17;;;;;;;21.21;39.50;101268.75;5250607;28;20122;-70
2023/10/14 10:32:17;;;;;;;11.68;2.33;;;;;;;;;;5251523;28;20036;-71
2023/10/14 10:35:06;;;;;;;10.98;3.20;;;;;;;21.19;40.42;101274.25;5248918;28;20029;-72
2023/10/14 10:37:57;;;;;;;7.22;2.50;;;;;;;21.24;40.80;101279.94;5235891;28;20033;-70
2023/10/14 10:40:28;;;;;;;9.93;2.97;;;;;;;20.70;40.90;101282.53;5252562;28;20032;-72
2023/10/14 10:43:09;;;;;;;7.32;2.05;;;;;;;20.71;41.31;101290.38;5247972;28;20059;-71
2023/10/14 10:45:42;;;;;;;10.13;3.72;;;;;;;20.12;42.02;101293.25;5248569;28;20083;-70
2023/10/14 10:48:15;;;;;;;11.02;2.80;;;;;;;20.09;42.10;101290.91;5252946;28;20079;-69
2023/10/14 10:50:50;;;;;;;7.65;2.47;;;;;;;19.86;43.93;101293.84;5250854;28;20047;-71
2023/10/14 10:53:23;;;;;;;12.98;2.58;;;;;;;19.96;43.41;101305.31;5262516;28;20021;-71
2023/10/14 10:55:54;;;;;;;9.48;3.13;;;;;;;19.45;45.77;101311.63;5246212;28;20021;-71
2023/10/14 10:58:25;;;;;;;8.15;2.25;;;;;;;19.86;43.04;101294.69;5246631;28;20062;-71
2023/10/14 11:00:58;;;;;;;6.93;2.13;;;;;;;19.73;42.42;101278.19;5247113;28;20025;-71
2023/10/14 11:03:29;;;;;;;11.77;2.73;;;;;;;19.46;43.17;101256.72;5249582;28;20029;-70
2023/10/14 11:06:00;;;;;;;9.60;2.10;;;;;;;19.71;44.00;101294.28;5251724;28;20029;-71
2023/10/14 11:08:32;;;;;;;6.83;2.17;;;;;;;19.45;43.91;101287.75;5241911;28;20037;-71
2023/10/14 11:11:03;;;;;;;15.40;3.10;;;;;;;19.63;44.25;101280.88;5239996;28;20033;-70
2023/10/14 11:13:36;;;;;;;13.47;3.80;;;;;;;19.56;45.20;101280.59;5244840;28;20029;-72
2023/10/14 11:16:14;;;;;;;8.77;2.50;;;;;;;19.66;43.04;101283.25;5241715;28;20032;-72
2023/10/14 11:18:48;;;;;;;9.77;2.27;;;;;;;19.57;43.98;101299.06;5236243;28;20073;-71
2023/10/14 11:21:20;;;;;;;;;;;;;;;20.29;43.63;101291.66;5236750;28;20381;-72
2023/10/14 11:23:53;;;;;;;9.47;3.30;;;;;;;19.71;45.11;101296.94;5236560;28;19909;-73
2023/10/14 11:26:24;;;;;;;7.23;1.87;;;;;;;19.83;44.57;101305.59;5235288;28;20472;-73
2023/10/14 11:28:58;;;;;;;9.93;2.77;;;;;;;19.96;46.53;101307.97;5236487;28;20065;-72
2023/10/14 11:31:30;;;;;;;11.57;2.40;;;;;;;19.91;42.45;101302.25;5235615;28;20033;-72
2023/10/14 11:34:02;;;;;;;7.70;2.07;;;;;;;19.82;41.59;101285.31;5235397;28;20048;-71
2023/10/14 11:36:34;;;;;;;11.63;2.97;;;;;;;19.91;40.14;101305.75;5237105;28;20029;-73
2023/10/14 11:39:13;;;;;;;9.40;2.60;;;;;;;19.34;41.45;101282.53;5231335;28;20024;-73
2023/10/14 11:41:46;;;;;;;6.60;2.43;;;;;;;19.74;40.75;101307.28;5237517;28;20609;-72
2023/10/14 11:44:18;;;;;;;8.00;1.90;;;;;;;19.30;43.48;101305.91;5236671;28;20033;-73
2023/10/14 11:46:50;;;;;;;8.43;2.10;;;;;;;19.58;41.93;101297.25;5235383;28;20123;-76
2023/10/14 11:49:23;;;;;;;7.67;2.07;;;;;;;19.61;42.40;101314.72;5234403;28;20033;-74
2023/10/14 11:51:55;;;;;;;10.50;2.10;;;;;;;19.46;42.00;101317.81;5231001;28;20407;-74
2023/10/14 11:54:26;;;;;;;6.10;2.10;;;;;;;19.41;42.71;101320.03;5231999;28;20033;-72
2023/10/14 11:56:58;;;;;;;8.87;2.03;;;;;;;19.52;43.52;101337.63;5237135;28;20075;-73
2023/10/14 11:59:29;;;;;;;11.63;3.00;;;;;;;19.32;44.22;101317.22;5234044;28;20071;-74
2023/10/14 12:02:00;;;;;;;11.97;3.03;;;;;;;19.42;43.24;101321.69;5231493;28;20047;-71
2023/10/14 12:04:32;;;;;;;9.97;2.50;;;;;;;19.31;44.49;101323.50;5230636;28;20021;-72
2023/10/14 12:07:04;;;;;;;14.70;2.40;;;;;;;19.40;42.91;101321.00;5230642;28;20780;-73
2023/10/14 12:09:35;;;;;;;9.23;2.37;;;;;;;19.43;43.19;101318.06;5234983;28;20036;-68